Clarksville, IN (47129)

1:24 PM EST on December 07, 2016 (GMT -0500)
Parkwood | | Change Station

Elev 469 ft 38.33 °N, 85.78 °W | Updated 17 seconds ago

Overcast
Overcast
41.4 °F
Feels Like 41 °F
N
1.1
Wind Variable Wind from North
Gusts 2.5 mph

Today
High -- | Low -- °F
--% Chance of Precip.
Yesterday
High -- | Low -- °F
Precip. -- in
Pressure 30.18 in
Visibility 10.0 miles
Clouds Overcast 10000 ft
Windchill 41 °F
Dew Point 2 °F
Humidity 19%
Rainfall in
Snow Depth Not available.
7:46 AM 5:22 PM
First Quarter, 54% visible
METAR KLOU 071753Z 00000KT 10SM OVC100 05/M05 A3017 RMK AO2 SLP218 T00501050 10056 21006 58015
Pressure 30.18 in
Visibility 10.0 miles
Clouds Overcast 10000 ft
Windchill 41 °F
Dew Point 2 °F
Humidity 19%
Rainfall in
Snow Depth Not available.
7:46 AM 5:22 PM
First Quarter, 54% visible
METAR KLOU 071753Z 00000KT 10SM OVC100 05/M05 A3017 RMK AO2 SLP218 T00501050 10056 21006 58015

10-Day Weather Forecast

Almanac

Astronomy

Dec. 07, 2016 Rise Set
Actual Time
Civil Twilight
Nautical Twilight
Astronomical Twilight
Moon
Length of Visible Light
Length of Day
Tomorrow will be .
, % of the Moon is Illuminated

Today's Extremes

State Highs State Lows

Community

WunderPhotos

Upload Photos

1,956,160 photos uploaded!

WunderBlog® & News

Nearby

Air Quality

  Air Quality AQ Index Pollutant
Not available.

Snow Depth

Station Depth Elevation

Earthquake Activity

City Distance Mag. Time & Date
Minimum magnitude displayed is 2.5.

Coastal Water Temperatures

Place Temperature

Stations

Nearby Weather Stations

Station Location Temp. Windchill Dew Point Humidity Wind Precip. Elev Updated Type
                   

Watches & Warnings

There are currently no watches in effect.